Time,TemperatureF,DewpointF,PressureIn,WindDirection,WindDirectionDegrees,WindSpeedMPH,WindSpeedGustMPH,Humidity,HourlyPrecipIn,Conditions,Clouds,dailyrainin,SoftwareType,DateUTC
2013-04-12 00:05:00,36.4,33.5,29.65,ENE,68,1.4,3.0,85,0.00,NA,NA,0.36,meteo_script,2013-04-12 05:05:00,
2013-04-12 00:35:00,36.4,33.7,29.63,ENE,63,0.0,1.0,86,0.00,NA,NA,0.00,meteo_script,2013-04-12 05:35:00,
2013-04-12 01:05:00,36.0,33.3,29.63,ENE,67,0.9,2.0,85,0.02,NA,NA,0.01,meteo_script,2013-04-12 06:05:00,
2013-04-12 01:35:00,36.1,33.3,29.64,ENE,60,0.1,1.0,85,0.02,NA,NA,0.02,meteo_script,2013-04-12 06:35:00,
2013-04-12 02:05:00,36.2,33.5,29.62,NE,56,0.4,2.0,86,0.00,NA,NA,0.02,meteo_script,2013-04-12 07:05:00,
2013-04-12 02:35:00,36.0,33.3,29.62,NE,54,0.5,2.0,86,0.00,NA,NA,0.02,meteo_script,2013-04-12 07:35:00,
2013-04-12 03:05:00,36.2,33.5,29.62,North,0,0.0,0.0,86,0.00,NA,NA,0.02,meteo_script,2013-04-12 08:05:00,
2013-04-12 03:35:00,36.4,33.6,29.61,North,0,0.0,0.0,85,0.00,NA,NA,0.02,meteo_script,2013-04-12 08:35:00,
2013-04-12 04:05:00,36.5,33.8,29.59,North,0,0.0,0.0,86,0.00,NA,NA,0.02,meteo_script,2013-04-12 09:05:00,
2013-04-12 04:35:00,36.7,33.8,29.61,North,0,0.0,0.0,85,0.02,NA,NA,0.03,meteo_script,2013-04-12 09:35:00,
2013-04-12 05:05:00,36.9,33.9,29.59,North,0,0.0,0.0,85,0.00,NA,NA,0.03,meteo_script,2013-04-12 10:05:00,
2013-04-12 05:35:00,36.8,33.9,29.58,North,0,0.0,0.0,85,0.00,NA,NA,0.03,meteo_script,2013-04-12 10:35:00,
2013-04-12 06:05:00,36.9,34.0,29.58,North,0,0.0,0.0,85,0.00,NA,NA,0.03,meteo_script,2013-04-12 11:05:00,
2013-04-12 06:35:00,36.7,33.7,29.58,North,0,0.0,0.0,85,0.00,NA,NA,0.03,meteo_script,2013-04-12 11:35:00,
2013-04-12 07:05:00,36.4,33.5,29.58,NNE,27,0.2,2.0,85,0.00,NA,NA,0.03,meteo_script,2013-04-12 12:05:00,
2013-04-12 07:35:00,36.1,33.2,29.60,North,9,0.2,2.0,85,0.00,NA,NA,0.03,meteo_script,2013-04-12 12:35:00,
2013-04-12 08:05:00,36.2,33.5,29.61,West,262,3.1,5.0,86,0.00,NA,NA,0.03,meteo_script,2013-04-12 13:05:00,
2013-04-12 08:35:00,36.1,33.2,29.61,West,264,0.8,2.0,85,0.00,NA,NA,0.03,meteo_script,2013-04-12 13:35:00,
2013-04-12 09:05:00,36.4,33.4,29.61,West,274,0.1,1.0,84,0.02,NA,NA,0.04,meteo_script,2013-04-12 14:05:00,
2013-04-12 09:35:00,37.3,34.1,29.62,West,267,0.3,2.0,84,0.00,NA,NA,0.04,meteo_script,2013-04-12 14:35:00,
2013-04-12 10:05:00,37.5,34.1,29.63,WNW,294,0.9,3.0,83,0.00,NA,NA,0.04,meteo_script,2013-04-12 15:05:00,
2013-04-12 10:35:00,38.2,34.4,29.62,WSW,255,1.6,4.0,81,0.00,NA,NA,0.04,meteo_script,2013-04-12 15:35:00,
2013-04-12 11:05:00,39.2,35.3,29.64,WNW,302,3.7,8.0,81,0.00,NA,NA,0.04,meteo_script,2013-04-12 16:05:00,
2013-04-12 11:35:00,39.8,35.2,29.65,WNW,293,5.1,13.0,77,0.00,NA,NA,0.04,meteo_script,2013-04-12 16:35:00,
2013-04-12 12:05:00,40.4,35.1,29.65,WNW,294,2.5,6.0,75,0.00,NA,NA,0.04,meteo_script,2013-04-12 17:05:00,
2013-04-12 12:35:00,41.4,35.4,29.64,WNW,287,4.3,8.0,72,0.00,NA,NA,0.04,meteo_script,2013-04-12 17:35:00,
2013-04-12 13:05:00,42.1,35.6,29.65,West,276,2.4,6.0,70,0.00,NA,NA,0.04,meteo_script,2013-04-12 18:05:00,
2013-04-12 14:35:00,40.7,34.1,29.70,WNW,285,1.5,4.0,70,0.00,NA,NA,0.04,meteo_script,2013-04-12 19:35:00,
2013-04-12 15:05:00,40.7,33.9,29.71,WNW,289,3.6,6.0,69,0.00,NA,NA,0.04,meteo_script,2013-04-12 20:05:00,
2013-04-12 15:35:00,39.3,33.3,29.72,West,277,6.4,14.0,72,0.00,NA,NA,0.04,meteo_script,2013-04-12 20:35:00,
2013-04-12 16:05:00,38.7,33.2,29.74,WNW,283,3.7,7.0,74,0.00,NA,NA,0.04,meteo_script,2013-04-12 21:05:00,
2013-04-12 16:35:00,37.7,32.0,29.75,WNW,288,7.4,11.0,73,0.00,NA,NA,0.04,meteo_script,2013-04-12 21:35:00,
2013-04-12 17:05:00,36.9,31.3,29.76,West,268,7.6,11.0,73,0.00,NA,NA,0.04,meteo_script,2013-04-12 22:05:00,
2013-04-12 17:35:00,36.8,30.9,29.77,WNW,295,6.7,13.0,72,0.00,NA,NA,0.04,meteo_script,2013-04-12 22:35:00,
2013-04-12 18:05:00,36.5,30.4,29.78,West,276,6.0,12.0,71,0.00,NA,NA,0.04,meteo_script,2013-04-12 23:05:00,
2013-04-12 18:35:00,35.9,29.5,29.79,West,279,5.7,10.0,70,0.00,NA,NA,0.04,meteo_script,2013-04-12 23:35:00,
2013-04-12 19:05:00,35.8,28.7,29.80,WSW,258,7.5,16.0,67,0.00,NA,NA,0.04,meteo_script,2013-04-13 00:05:00,
2013-04-12 19:35:00,35.6,28.3,29.80,West,277,5.0,11.0,66,0.00,NA,NA,0.04,meteo_script,2013-04-13 00:35:00,
2013-04-12 20:05:00,35.4,28.1,29.81,West,277,4.7,11.0,66,0.00,NA,NA,0.04,meteo_script,2013-04-13 01:05:00,
2013-04-12 20:35:00,35.2,28.1,29.81,WSW,250,4.4,8.0,67,0.00,NA,NA,0.04,meteo_script,2013-04-13 01:35:00,
2013-04-12 21:05:00,35.0,27.8,29.82,West,264,4.9,9.0,66,0.00,NA,NA,0.04,meteo_script,2013-04-13 02:05:00,
2013-04-12 21:35:00,34.9,27.8,29.84,WNW,282,1.5,6.0,67,0.00,NA,NA,0.04,meteo_script,2013-04-13 02:35:00,
2013-04-12 22:05:00,34.7,27.9,29.82,West,281,3.5,5.0,68,0.00,NA,NA,0.04,meteo_script,2013-04-13 03:05:00,
2013-04-12 22:35:00,34.6,27.8,29.83,WSW,256,7.2,10.0,68,0.00,NA,NA,0.04,meteo_script,2013-04-13 03:35:00,
2013-04-12 23:05:00,34.3,27.3,29.83,WSW,251,5.8,10.0,67,0.00,NA,NA,0.04,meteo_script,2013-04-13 04:05:00,
2013-04-12 23:35:00,34.2,27.7,29.83,WSW,252,7.3,10.0,68,0.00,NA,NA,0.04,meteo_script,2013-04-13 04:35:00,